Fredericktown, Ohio
Current Conditions -  °F | °C
As of 4:36 PM on Wednesday 26 Nov 2014 (Local Time) from K4I3 Reporting Station
Broken Clouds Broken Clouds  
Wind Chill: 32°   Ceiling: 3400
Heat Index: 36°   Visibility: 10mi
Dew Point: 27°   Wind: 5mph
Humidity: 70%   Direction: 340°NNW
Pressure: 30.01"   Gusts: NA
Location:  40.48°N, 82.54°W
Report Text: K4I3 262136Z AUTO 34004KT 10SM BKN034 02/M03 A3001 RMK AO2
Loading
Personal Weather Stations






























Interactive Weather Map New forecast layout! Learn more

10-Day Weather Forecast

Advertisements
Track Severe Weather on mobile